sensor_id;sensor_type;location;lat;lon;timestamp;P1;durP1;ratioP1;P2;durP2;ratioP2
9364;SDS011;4722;49.340;9.800;2023-05-09T00:01:29;12.63;;;6.43;;
9364;SDS011;4722;49.340;9.800;2023-05-09T00:03:56;14.20;;;7.55;;
9364;SDS011;4722;49.340;9.800;2023-05-09T00:06:23;19.17;;;6.95;;
9364;SDS011;4722;49.340;9.800;2023-05-09T00:08:50;9.93;;;5.90;;
9364;SDS011;4722;49.340;9.800;2023-05-09T00:11:15;15.40;;;7.78;;
9364;SDS011;4722;49.340;9.800;2023-05-09T00:13:41;13.63;;;7.05;;
9364;SDS011;4722;49.340;9.800;2023-05-09T00:16:08;13.15;;;7.53;;
9364;SDS011;4722;49.340;9.800;2023-05-09T00:18:34;14.88;;;7.00;;
9364;SDS011;4722;49.340;9.800;2023-05-09T00:21:01;12.23;;;6.55;;
9364;SDS011;4722;49.340;9.800;2023-05-09T00:23:28;9.88;;;6.65;;
9364;SDS011;4722;49.340;9.800;2023-05-09T00:25:54;12.32;;;6.78;;
9364;SDS011;4722;49.340;9.800;2023-05-09T00:28:20;10.52;;;5.85;;
9364;SDS011;4722;49.340;9.800;2023-05-09T00:30:46;14.48;;;7.13;;
9364;SDS011;4722;49.340;9.800;2023-05-09T00:33:12;11.52;;;5.35;;
9364;SDS011;4722;49.340;9.800;2023-05-09T00:35:38;10.38;;;5.15;;
9364;SDS011;4722;49.340;9.800;2023-05-09T00:38:05;12.82;;;6.55;;
9364;SDS011;4722;49.340;9.800;2023-05-09T00:40:30;10.75;;;5.82;;
9364;SDS011;4722;49.340;9.800;2023-05-09T00:43:00;11.52;;;6.10;;
9364;SDS011;4722;49.340;9.800;2023-05-09T00:45:26;12.52;;;6.38;;
9364;SDS011;4722;49.340;9.800;2023-05-09T00:47:52;11.65;;;6.30;;
9364;SDS011;4722;49.340;9.800;2023-05-09T00:50:18;12.88;;;7.97;;
9364;SDS011;4722;49.340;9.800;2023-05-09T00:52:44;16.08;;;7.78;;
9364;SDS011;4722;49.340;9.800;2023-05-09T00:55:10;14.77;;;7.15;;
9364;SDS011;4722;49.340;9.800;2023-05-09T00:57:37;14.85;;;7.68;;
9364;SDS011;4722;49.340;9.800;2023-05-09T01:00:03;11.23;;;6.28;;
9364;SDS011;4722;49.340;9.800;2023-05-09T01:02:29;9.63;;;5.22;;
9364;SDS011;4722;49.340;9.800;2023-05-09T01:04:56;14.80;;;7.57;;
9364;SDS011;4722;49.340;9.800;2023-05-09T01:12:46;13.95;;;7.43;;
9364;SDS011;4722;49.340;9.800;2023-05-09T01:15:30;14.20;;;6.95;;
9364;SDS011;4722;49.340;9.800;2023-05-09T01:18:00;9.55;;;5.57;;
9364;SDS011;4722;49.340;9.800;2023-05-09T01:20:32;11.68;;;6.90;;
9364;SDS011;4722;49.340;9.800;2023-05-09T01:28:13;13.00;;;6.85;;
9364;SDS011;4722;49.340;9.800;2023-05-09T01:30:44;10.63;;;6.22;;
9364;SDS011;4722;49.340;9.800;2023-05-09T01:33:16;12.18;;;5.88;;
9364;SDS011;4722;49.340;9.800;2023-05-09T01:35:44;16.13;;;7.72;;
9364;SDS011;4722;49.340;9.800;2023-05-09T01:38:18;11.60;;;6.53;;
9364;SDS011;4722;49.340;9.800;2023-05-09T01:40:47;13.07;;;6.88;;
9364;SDS011;4722;49.340;9.800;2023-05-09T01:43:15;13.93;;;6.00;;
9364;SDS011;4722;49.340;9.800;2023-05-09T01:45:42;11.15;;;5.93;;
9364;SDS011;4722;49.340;9.800;2023-05-09T01:48:09;14.25;;;6.68;;
9364;SDS011;4722;49.340;9.800;2023-05-09T01:50:35;10.82;;;6.57;;
9364;SDS011;4722;49.340;9.800;2023-05-09T01:53:02;17.27;;;6.45;;
9364;SDS011;4722;49.340;9.800;2023-05-09T01:55:30;14.32;;;7.13;;
9364;SDS011;4722;49.340;9.800;2023-05-09T01:57:57;15.93;;;7.25;;
9364;SDS011;4722;49.340;9.800;2023-05-09T02:00:23;10.90;;;6.28;;
9364;SDS011;4722;49.340;9.800;2023-05-09T02:02:50;13.52;;;6.53;;
9364;SDS011;4722;49.340;9.800;2023-05-09T02:05:17;10.38;;;6.38;;
9364;SDS011;4722;49.340;9.800;2023-05-09T02:07:43;13.52;;;6.80;;
9364;SDS011;4722;49.340;9.800;2023-05-09T02:10:11;12.73;;;5.93;;
9364;SDS011;4722;49.340;9.800;2023-05-09T02:12:37;10.82;;;5.95;;
9364;SDS011;4722;49.340;9.800;2023-05-09T02:15:04;12.35;;;6.28;;
9364;SDS011;4722;49.340;9.800;2023-05-09T02:17:30;12.63;;;6.88;;
9364;SDS011;4722;49.340;9.800;2023-05-09T02:19:56;13.90;;;6.82;;
9364;SDS011;4722;49.340;9.800;2023-05-09T02:22:22;13.57;;;6.65;;
9364;SDS011;4722;49.340;9.800;2023-05-09T02:24:48;16.60;;;6.43;;
9364;SDS011;4722;49.340;9.800;2023-05-09T02:27:15;12.73;;;6.93;;
9364;SDS011;4722;49.340;9.800;2023-05-09T02:29:43;12.05;;;6.35;;
9364;SDS011;4722;49.340;9.800;2023-05-09T02:32:10;12.88;;;7.57;;
9364;SDS011;4722;49.340;9.800;2023-05-09T02:34:37;13.10;;;7.00;;
9364;SDS011;4722;49.340;9.800;2023-05-09T02:37:03;13.57;;;6.25;;
9364;SDS011;4722;49.340;9.800;2023-05-09T02:39:30;15.68;;;6.07;;
9364;SDS011;4722;49.340;9.800;2023-05-09T02:42:00;10.18;;;5.88;;
9364;SDS011;4722;49.340;9.800;2023-05-09T02:44:31;14.13;;;7.65;;
9364;SDS011;4722;49.340;9.800;2023-05-09T02:46:57;16.58;;;6.32;;
9364;SDS011;4722;49.340;9.800;2023-05-09T02:49:23;14.55;;;6.38;;
9364;SDS011;4722;49.340;9.800;2023-05-09T02:51:49;9.82;;;5.80;;
9364;SDS011;4722;49.340;9.800;2023-05-09T02:54:15;18.48;;;7.50;;
9364;SDS011;4722;49.340;9.800;2023-05-09T02:56:42;14.20;;;7.05;;
9364;SDS011;4722;49.340;9.800;2023-05-09T02:59:08;12.18;;;6.78;;
9364;SDS011;4722;49.340;9.800;2023-05-09T03:01:34;14.55;;;7.13;;
9364;SDS011;4722;49.340;9.800;2023-05-09T03:04:00;12.90;;;7.05;;
9364;SDS011;4722;49.340;9.800;2023-05-09T03:06:26;14.02;;;7.85;;
9364;SDS011;4722;49.340;9.800;2023-05-09T03:08:52;15.50;;;6.97;;
9364;SDS011;4722;49.340;9.800;2023-05-09T03:11:18;11.77;;;6.80;;
9364;SDS011;4722;49.340;9.800;2023-05-09T03:13:44;11.93;;;6.10;;
9364;SDS011;4722;49.340;9.800;2023-05-09T03:16:13;11.70;;;6.20;;
9364;SDS011;4722;49.340;9.800;2023-05-09T03:18:39;11.60;;;6.30;;
9364;SDS011;4722;49.340;9.800;2023-05-09T03:21:05;23.83;;;8.23;;
9364;SDS011;4722;49.340;9.800;2023-05-09T03:23:31;11.70;;;6.45;;
9364;SDS011;4722;49.340;9.800;2023-05-09T03:25:57;13.15;;;7.15;;
9364;SDS011;4722;49.340;9.800;2023-05-09T03:28:23;9.88;;;5.57;;
9364;SDS011;4722;49.340;9.800;2023-05-09T03:30:49;14.70;;;6.85;;
9364;SDS011;4722;49.340;9.800;2023-05-09T03:33:15;15.70;;;7.40;;
9364;SDS011;4722;49.340;9.800;2023-05-09T03:35:41;13.18;;;6.07;;
9364;SDS011;4722;49.340;9.800;2023-05-09T03:38:07;13.52;;;6.57;;
9364;SDS011;4722;49.340;9.800;2023-05-09T03:40:33;14.05;;;6.55;;
9364;SDS011;4722;49.340;9.800;2023-05-09T03:42:59;15.25;;;6.95;;
9364;SDS011;4722;49.340;9.800;2023-05-09T03:45:25;15.30;;;7.47;;
9364;SDS011;4722;49.340;9.800;2023-05-09T03:47:51;11.25;;;5.38;;
9364;SDS011;4722;49.340;9.800;2023-05-09T03:50:17;13.30;;;7.18;;
9364;SDS011;4722;49.340;9.800;2023-05-09T03:52:43;14.07;;;6.93;;
9364;SDS011;4722;49.340;9.800;2023-05-09T03:55:09;13.38;;;6.78;;
9364;SDS011;4722;49.340;9.800;2023-05-09T03:57:35;13.75;;;7.53;;
9364;SDS011;4722;49.340;9.800;2023-05-09T04:00:02;16.85;;;7.68;;
9364;SDS011;4722;49.340;9.800;2023-05-09T04:02:32;17.08;;;7.25;;
9364;SDS011;4722;49.340;9.800;2023-05-09T04:04:59;14.00;;;7.10;;
9364;SDS011;4722;49.340;9.800;2023-05-09T04:07:25;15.95;;;7.75;;
9364;SDS011;4722;49.340;9.800;2023-05-09T04:09:52;11.75;;;6.60;;
9364;SDS011;4722;49.340;9.800;2023-05-09T04:12:19;12.65;;;7.18;;
9364;SDS011;4722;49.340;9.800;2023-05-09T04:14:45;13.55;;;7.15;;
9364;SDS011;4722;49.340;9.800;2023-05-09T04:17:11;14.10;;;7.15;;
9364;SDS011;4722;49.340;9.800;2023-05-09T04:19:37;16.33;;;7.45;;
9364;SDS011;4722;49.340;9.800;2023-05-09T04:22:03;13.63;;;7.35;;
9364;SDS011;4722;49.340;9.800;2023-05-09T04:24:29;15.10;;;8.50;;
9364;SDS011;4722;49.340;9.800;2023-05-09T04:26:56;15.85;;;8.00;;
9364;SDS011;4722;49.340;9.800;2023-05-09T04:29:22;18.25;;;7.03;;
9364;SDS011;4722;49.340;9.800;2023-05-09T04:31:47;16.27;;;6.70;;
9364;SDS011;4722;49.340;9.800;2023-05-09T04:34:13;22.17;;;7.80;;
9364;SDS011;4722;49.340;9.800;2023-05-09T04:36:39;16.95;;;6.70;;
9364;SDS011;4722;49.340;9.800;2023-05-09T04:39:05;20.75;;;8.38;;
9364;SDS011;4722;49.340;9.800;2023-05-09T04:41:32;19.38;;;8.23;;
9364;SDS011;4722;49.340;9.800;2023-05-09T04:43:58;17.77;;;8.05;;
9364;SDS011;4722;49.340;9.800;2023-05-09T04:46:24;18.10;;;8.38;;
9364;SDS011;4722;49.340;9.800;2023-05-09T04:48:51;25.55;;;8.73;;
9364;SDS011;4722;49.340;9.800;2023-05-09T04:51:16;17.75;;;9.85;;
9364;SDS011;4722;49.340;9.800;2023-05-09T04:53:43;23.35;;;10.00;;
9364;SDS011;4722;49.340;9.800;2023-05-09T04:56:09;22.10;;;9.52;;
9364;SDS011;4722;49.340;9.800;2023-05-09T04:58:35;20.90;;;8.63;;
9364;SDS011;4722;49.340;9.800;2023-05-09T05:01:04;21.05;;;10.55;;
9364;SDS011;4722;49.340;9.800;2023-05-09T05:03:30;20.67;;;9.68;;
9364;SDS011;4722;49.340;9.800;2023-05-09T05:05:56;24.25;;;8.55;;
9364;SDS011;4722;49.340;9.800;2023-05-09T05:08:22;22.80;;;9.05;;
9364;SDS011;4722;49.340;9.800;2023-05-09T05:10:48;14.82;;;7.88;;
9364;SDS011;4722;49.340;9.800;2023-05-09T05:13:14;13.77;;;7.50;;
9364;SDS011;4722;49.340;9.800;2023-05-09T05:15:41;14.70;;;8.10;;
9364;SDS011;4722;49.340;9.800;2023-05-09T05:18:07;13.18;;;8.07;;
9364;SDS011;4722;49.340;9.800;2023-05-09T05:20:33;22.38;;;9.15;;
9364;SDS011;4722;49.340;9.800;2023-05-09T05:22:59;16.30;;;7.03;;
9364;SDS011;4722;49.340;9.800;2023-05-09T05:25:25;17.50;;;8.35;;
9364;SDS011;4722;49.340;9.800;2023-05-09T05:27:51;19.20;;;8.25;;
9364;SDS011;4722;49.340;9.800;2023-05-09T05:30:17;13.23;;;7.72;;
9364;SDS011;4722;49.340;9.800;2023-05-09T05:32:44;13.70;;;7.53;;
9364;SDS011;4722;49.340;9.800;2023-05-09T05:35:10;17.30;;;7.85;;
9364;SDS011;4722;49.340;9.800;2023-05-09T05:37:37;17.80;;;8.10;;
9364;SDS011;4722;49.340;9.800;2023-05-09T05:40:03;17.95;;;7.93;;
9364;SDS011;4722;49.340;9.800;2023-05-09T05:42:30;15.10;;;7.95;;
9364;SDS011;4722;49.340;9.800;2023-05-09T05:44:55;16.70;;;8.05;;
9364;SDS011;4722;49.340;9.800;2023-05-09T05:47:25;14.63;;;7.85;;
9364;SDS011;4722;49.340;9.800;2023-05-09T05:49:51;16.08;;;7.35;;
9364;SDS011;4722;49.340;9.800;2023-05-09T05:52:17;13.30;;;7.60;;
9364;SDS011;4722;49.340;9.800;2023-05-09T05:54:43;13.77;;;7.03;;
9364;SDS011;4722;49.340;9.800;2023-05-09T05:57:08;13.65;;;6.68;;
9364;SDS011;4722;49.340;9.800;2023-05-09T05:59:34;12.05;;;6.00;;
9364;SDS011;4722;49.340;9.800;2023-05-09T06:02:00;15.35;;;6.80;;
9364;SDS011;4722;49.340;9.800;2023-05-09T06:04:26;13.60;;;6.80;;
9364;SDS011;4722;49.340;9.800;2023-05-09T06:06:52;15.20;;;6.45;;
9364;SDS011;4722;49.340;9.800;2023-05-09T06:09:19;13.32;;;6.47;;
9364;SDS011;4722;49.340;9.800;2023-05-09T06:11:45;19.88;;;6.97;;
9364;SDS011;4722;49.340;9.800;2023-05-09T06:14:11;13.30;;;6.50;;
9364;SDS011;4722;49.340;9.800;2023-05-09T06:16:38;13.68;;;5.97;;
9364;SDS011;4722;49.340;9.800;2023-05-09T06:19:04;13.32;;;7.50;;
9364;SDS011;4722;49.340;9.800;2023-05-09T06:21:30;13.65;;;6.90;;
9364;SDS011;4722;49.340;9.800;2023-05-09T06:23:58;16.10;;;7.20;;
9364;SDS011;4722;49.340;9.800;2023-05-09T06:26:24;13.65;;;7.30;;
9364;SDS011;4722;49.340;9.800;2023-05-09T06:28:50;13.10;;;6.50;;
9364;SDS011;4722;49.340;9.800;2023-05-09T06:31:16;14.70;;;6.57;;
9364;SDS011;4722;49.340;9.800;2023-05-09T06:33:41;16.92;;;7.53;;
9364;SDS011;4722;49.340;9.800;2023-05-09T06:36:07;12.30;;;5.95;;
9364;SDS011;4722;49.340;9.800;2023-05-09T06:38:33;10.15;;;5.45;;
9364;SDS011;4722;49.340;9.800;2023-05-09T06:40:59;14.07;;;7.38;;
9364;SDS011;4722;49.340;9.800;2023-05-09T06:43:25;12.32;;;6.07;;
9364;SDS011;4722;49.340;9.800;2023-05-09T06:45:51;10.05;;;5.65;;
9364;SDS011;4722;49.340;9.800;2023-05-09T06:48:17;11.35;;;6.40;;
9364;SDS011;4722;49.340;9.800;2023-05-09T06:50:43;12.25;;;6.85;;
9364;SDS011;4722;49.340;9.800;2023-05-09T06:53:09;10.73;;;5.15;;
9364;SDS011;4722;49.340;9.800;2023-05-09T06:55:35;9.30;;;5.75;;
9364;SDS011;4722;49.340;9.800;2023-05-09T06:58:01;10.35;;;5.38;;
9364;SDS011;4722;49.340;9.800;2023-05-09T07:00:27;11.07;;;5.05;;
9364;SDS011;4722;49.340;9.800;2023-05-09T07:02:53;10.07;;;5.03;;
9364;SDS011;4722;49.340;9.800;2023-05-09T07:05:19;9.02;;;5.03;;
9364;SDS011;4722;49.340;9.800;2023-05-09T07:07:45;9.80;;;4.80;;
9364;SDS011;4722;49.340;9.800;2023-05-09T07:10:11;7.95;;;4.63;;
9364;SDS011;4722;49.340;9.800;2023-05-09T07:12:39;6.43;;;3.63;;
9364;SDS011;4722;49.340;9.800;2023-05-09T07:15:05;6.28;;;3.75;;
9364;SDS011;4722;49.340;9.800;2023-05-09T07:17:32;6.75;;;4.13;;
9364;SDS011;4722;49.340;9.800;2023-05-09T07:19:58;7.53;;;3.58;;
9364;SDS011;4722;49.340;9.800;2023-05-09T07:22:24;7.38;;;3.60;;
9364;SDS011;4722;49.340;9.800;2023-05-09T07:24:50;6.63;;;3.80;;
9364;SDS011;4722;49.340;9.800;2023-05-09T07:27:16;5.57;;;2.97;;
9364;SDS011;4722;49.340;9.800;2023-05-09T07:29:43;5.43;;;3.70;;
9364;SDS011;4722;49.340;9.800;2023-05-09T07:32:09;5.82;;;3.78;;
9364;SDS011;4722;49.340;9.800;2023-05-09T07:34:35;8.93;;;3.13;;
9364;SDS011;4722;49.340;9.800;2023-05-09T07:37:00;7.40;;;3.35;;
9364;SDS011;4722;49.340;9.800;2023-05-09T07:39:26;5.72;;;3.53;;
9364;SDS011;4722;49.340;9.800;2023-05-09T07:41:52;5.50;;;3.33;;
9364;SDS011;4722;49.340;9.800;2023-05-09T07:44:18;4.55;;;2.63;;
9364;SDS011;4722;49.340;9.800;2023-05-09T07:46:44;6.53;;;3.45;;
9364;SDS011;4722;49.340;9.800;2023-05-09T07:49:10;7.93;;;3.38;;
9364;SDS011;4722;49.340;9.800;2023-05-09T07:51:36;11.48;;;3.25;;
9364;SDS011;4722;49.340;9.800;2023-05-09T07:54:02;4.60;;;2.92;;
9364;SDS011;4722;49.340;9.800;2023-05-09T07:56:28;6.25;;;2.92;;
9364;SDS011;4722;49.340;9.800;2023-05-09T07:58:54;3.20;;;1.95;;
9364;SDS011;4722;49.340;9.800;2023-05-09T08:01:20;5.57;;;2.92;;
9364;SDS011;4722;49.340;9.800;2023-05-09T08:03:46;4.50;;;2.75;;
9364;SDS011;4722;49.340;9.800;2023-05-09T08:06:12;5.70;;;2.50;;
9364;SDS011;4722;49.340;9.800;2023-05-09T08:08:38;4.85;;;2.55;;
9364;SDS011;4722;49.340;9.800;2023-05-09T08:11:04;5.28;;;2.20;;
9364;SDS011;4722;49.340;9.800;2023-05-09T08:13:30;4.88;;;2.78;;
9364;SDS011;4722;49.340;9.800;2023-05-09T08:15:56;4.00;;;2.35;;
9364;SDS011;4722;49.340;9.800;2023-05-09T08:18:22;3.38;;;1.92;;
9364;SDS011;4722;49.340;9.800;2023-05-09T08:20:48;4.82;;;2.35;;
9364;SDS011;4722;49.340;9.800;2023-05-09T08:23:14;6.43;;;1.98;;
9364;SDS011;4722;49.340;9.800;2023-05-09T08:25:40;3.88;;;2.05;;
9364;SDS011;4722;49.340;9.800;2023-05-09T08:28:07;4.35;;;2.03;;
9364;SDS011;4722;49.340;9.800;2023-05-09T08:30:33;4.63;;;2.40;;
9364;SDS011;4722;49.340;9.800;2023-05-09T08:32:59;5.38;;;1.85;;
9364;SDS011;4722;49.340;9.800;2023-05-09T08:35:25;3.70;;;1.67;;
9364;SDS011;4722;49.340;9.800;2023-05-09T08:37:50;3.63;;;1.92;;
9364;SDS011;4722;49.340;9.800;2023-05-09T08:40:17;2.60;;;1.92;;
9364;SDS011;4722;49.340;9.800;2023-05-09T08:42:43;3.92;;;2.13;;
9364;SDS011;4722;49.340;9.800;2023-05-09T08:45:10;5.53;;;2.08;;
9364;SDS011;4722;49.340;9.800;2023-05-09T08:47:40;3.58;;;2.00;;
9364;SDS011;4722;49.340;9.800;2023-05-09T08:50:06;3.38;;;1.90;;
9364;SDS011;4722;49.340;9.800;2023-05-09T08:52:32;2.55;;;1.58;;
9364;SDS011;4722;49.340;9.800;2023-05-09T08:55:02;2.47;;;1.30;;
9364;SDS011;4722;49.340;9.800;2023-05-09T08:57:30;4.10;;;1.77;;
9364;SDS011;4722;49.340;9.800;2023-05-09T08:59:58;3.25;;;1.55;;
9364;SDS011;4722;49.340;9.800;2023-05-09T09:02:24;3.33;;;1.67;;
9364;SDS011;4722;49.340;9.800;2023-05-09T09:04:50;4.13;;;1.65;;
9364;SDS011;4722;49.340;9.800;2023-05-09T09:07:16;4.60;;;1.70;;
9364;SDS011;4722;49.340;9.800;2023-05-09T09:09:43;3.63;;;1.85;;
9364;SDS011;4722;49.340;9.800;2023-05-09T09:12:10;4.75;;;2.30;;
9364;SDS011;4722;49.340;9.800;2023-05-09T09:14:37;2.40;;;1.60;;
9364;SDS011;4722;49.340;9.800;2023-05-09T09:17:04;5.32;;;2.35;;
9364;SDS011;4722;49.340;9.800;2023-05-09T09:19:33;3.90;;;2.13;;
9364;SDS011;4722;49.340;9.800;2023-05-09T09:22:01;4.70;;;2.72;;
9364;SDS011;4722;49.340;9.800;2023-05-09T09:24:31;4.97;;;2.05;;
9364;SDS011;4722;49.340;9.800;2023-05-09T09:26:57;3.50;;;2.05;;
9364;SDS011;4722;49.340;9.800;2023-05-09T09:34:25;3.65;;;2.10;;
9364;SDS011;4722;49.340;9.800;2023-05-09T09:36:50;6.95;;;2.72;;
9364;SDS011;4722;49.340;9.800;2023-05-09T09:39:16;4.00;;;2.38;;
9364;SDS011;4722;49.340;9.800;2023-05-09T09:41:42;5.15;;;2.20;;
9364;SDS011;4722;49.340;9.800;2023-05-09T09:44:18;9.20;;;2.85;;
9364;SDS011;4722;49.340;9.800;2023-05-09T09:46:49;3.28;;;1.70;;
9364;SDS011;4722;49.340;9.800;2023-05-09T09:49:15;3.28;;;2.00;;
9364;SDS011;4722;49.340;9.800;2023-05-09T09:51:48;9.82;;;1.77;;
9364;SDS011;4722;49.340;9.800;2023-05-09T09:54:17;3.28;;;1.45;;
9364;SDS011;4722;49.340;9.800;2023-05-09T09:56:44;2.70;;;1.38;;
9364;SDS011;4722;49.340;9.800;2023-05-09T09:59:14;3.67;;;1.50;;
9364;SDS011;4722;49.340;9.800;2023-05-09T10:01:56;2.50;;;1.30;;
9364;SDS011;4722;49.340;9.800;2023-05-09T10:04:23;3.38;;;1.35;;
9364;SDS011;4722;49.340;9.800;2023-05-09T10:06:51;3.38;;;1.45;;
9364;SDS011;4722;49.340;9.800;2023-05-09T10:09:18;2.92;;;1.20;;
9364;SDS011;4722;49.340;9.800;2023-05-09T10:11:44;3.42;;;1.65;;
9364;SDS011;4722;49.340;9.800;2023-05-09T10:14:12;3.17;;;1.30;;
9364;SDS011;4722;49.340;9.800;2023-05-09T10:16:39;3.53;;;1.35;;
9364;SDS011;4722;49.340;9.800;2023-05-09T10:19:06;2.83;;;1.30;;
9364;SDS011;4722;49.340;9.800;2023-05-09T10:21:33;3.45;;;1.73;;
9364;SDS011;4722;49.340;9.800;2023-05-09T10:24:00;1.88;;;0.88;;
9364;SDS011;4722;49.340;9.800;2023-05-09T10:26:29;6.85;;;1.42;;
9364;SDS011;4722;49.340;9.800;2023-05-09T10:28:57;1.98;;;1.00;;
9364;SDS011;4722;49.340;9.800;2023-05-09T10:31:30;3.22;;;1.23;;
9364;SDS011;4722;49.340;9.800;2023-05-09T10:34:00;6.57;;;1.60;;
9364;SDS011;4722;49.340;9.800;2023-05-09T10:36:26;2.28;;;1.45;;
9364;SDS011;4722;49.340;9.800;2023-05-09T10:38:53;2.08;;;1.13;;
9364;SDS011;4722;49.340;9.800;2023-05-09T10:41:19;3.88;;;1.10;;
9364;SDS011;4722;49.340;9.800;2023-05-09T10:43:46;2.58;;;1.38;;
9364;SDS011;4722;49.340;9.800;2023-05-09T10:46:13;3.80;;;1.33;;
9364;SDS011;4722;49.340;9.800;2023-05-09T10:48:40;1.40;;;0.77;;
9364;SDS011;4722;49.340;9.800;2023-05-09T10:51:07;2.22;;;1.30;;
9364;SDS011;4722;49.340;9.800;2023-05-09T10:53:43;2.38;;;1.20;;
9364;SDS011;4722;49.340;9.800;2023-05-09T10:56:23;1.60;;;0.88;;
9364;SDS011;4722;49.340;9.800;2023-05-09T10:58:50;2.03;;;1.40;;
9364;SDS011;4722;49.340;9.800;2023-05-09T11:01:27;6.80;;;2.03;;
9364;SDS011;4722;49.340;9.800;2023-05-09T11:03:55;4.47;;;1.55;;
9364;SDS011;4722;49.340;9.800;2023-05-09T11:09:23;3.10;;;1.10;;
9364;SDS011;4722;49.340;9.800;2023-05-09T11:12:12;2.58;;;1.17;;
9364;SDS011;4722;49.340;9.800;2023-05-09T11:14:43;1.55;;;0.93;;
9364;SDS011;4722;49.340;9.800;2023-05-09T11:19:35;2.75;;;1.27;;
9364;SDS011;4722;49.340;9.800;2023-05-09T11:22:18;1.73;;;0.90;;
9364;SDS011;4722;49.340;9.800;2023-05-09T11:24:45;1.52;;;0.82;;
9364;SDS011;4722;49.340;9.800;2023-05-09T11:29:53;1.98;;;1.27;;
9364;SDS011;4722;49.340;9.800;2023-05-09T11:32:20;2.78;;;1.63;;
9364;SDS011;4722;49.340;9.800;2023-05-09T11:34:46;2.70;;;1.40;;
9364;SDS011;4722;49.340;9.800;2023-05-09T11:37:13;2.88;;;1.13;;
9364;SDS011;4722;49.340;9.800;2023-05-09T11:40:00;2.50;;;1.15;;
9364;SDS011;4722;49.340;9.800;2023-05-09T11:42:29;2.67;;;1.10;;
9364;SDS011;4722;49.340;9.800;2023-05-09T11:44:56;6.15;;;1.00;;
9364;SDS011;4722;49.340;9.800;2023-05-09T11:47:23;1.52;;;0.88;;
9364;SDS011;4722;49.340;9.800;2023-05-09T11:49:49;1.20;;;0.75;;
9364;SDS011;4722;49.340;9.800;2023-05-09T11:52:15;1.90;;;1.02;;
9364;SDS011;4722;49.340;9.800;2023-05-09T11:54:41;1.85;;;0.93;;
9364;SDS011;4722;49.340;9.800;2023-05-09T11:57:08;4.63;;;1.20;;
9364;SDS011;4722;49.340;9.800;2023-05-09T11:59:34;4.55;;;1.52;;
9364;SDS011;4722;49.340;9.800;2023-05-09T12:02:03;2.47;;;1.10;;
9364;SDS011;4722;49.340;9.800;2023-05-09T12:04:30;1.55;;;0.80;;
9364;SDS011;4722;49.340;9.800;2023-05-09T12:06:59;2.17;;;1.30;;
9364;SDS011;4722;49.340;9.800;2023-05-09T12:09:28;2.10;;;0.93;;
9364;SDS011;4722;49.340;9.800;2023-05-09T12:11:56;2.83;;;1.60;;
9364;SDS011;4722;49.340;9.800;2023-05-09T12:14:26;2.95;;;1.02;;
9364;SDS011;4722;49.340;9.800;2023-05-09T12:16:53;2.40;;;1.27;;
9364;SDS011;4722;49.340;9.800;2023-05-09T12:19:19;2.42;;;1.45;;
9364;SDS011;4722;49.340;9.800;2023-05-09T12:21:45;1.92;;;1.05;;
9364;SDS011;4722;49.340;9.800;2023-05-09T12:24:11;2.25;;;1.27;;
9364;SDS011;4722;49.340;9.800;2023-05-09T12:26:38;1.80;;;0.98;;
9364;SDS011;4722;49.340;9.800;2023-05-09T12:29:04;3.10;;;1.58;;
9364;SDS011;4722;49.340;9.800;2023-05-09T12:31:30;2.85;;;1.27;;
9364;SDS011;4722;49.340;9.800;2023-05-09T12:33:56;1.83;;;1.20;;
9364;SDS011;4722;49.340;9.800;2023-05-09T12:36:22;1.38;;;0.80;;
9364;SDS011;4722;49.340;9.800;2023-05-09T12:38:54;14.85;;;1.70;;
9364;SDS011;4722;49.340;9.800;2023-05-09T12:41:20;4.13;;;1.13;;
9364;SDS011;4722;49.340;9.800;2023-05-09T12:43:48;2.92;;;1.02;;
9364;SDS011;4722;49.340;9.800;2023-05-09T12:46:17;2.28;;;0.80;;
9364;SDS011;4722;49.340;9.800;2023-05-09T12:48:44;2.30;;;0.98;;
9364;SDS011;4722;49.340;9.800;2023-05-09T12:51:11;2.10;;;1.13;;
9364;SDS011;4722;49.340;9.800;2023-05-09T12:53:38;1.70;;;0.80;;
9364;SDS011;4722;49.340;9.800;2023-05-09T12:56:12;2.72;;;0.75;;
9364;SDS011;4722;49.340;9.800;2023-05-09T12:58:47;2.97;;;0.90;;
9364;SDS011;4722;49.340;9.800;2023-05-09T13:01:15;2.10;;;0.73;;
9364;SDS011;4722;49.340;9.800;2023-05-09T13:03:42;3.60;;;1.08;;
9364;SDS011;4722;49.340;9.800;2023-05-09T13:06:12;0.98;;;0.70;;
9364;SDS011;4722;49.340;9.800;2023-05-09T13:08:38;1.90;;;0.77;;
9364;SDS011;4722;49.340;9.800;2023-05-09T13:11:04;1.73;;;1.00;;
9364;SDS011;4722;49.340;9.800;2023-05-09T13:13:31;2.30;;;1.10;;
9364;SDS011;4722;49.340;9.800;2023-05-09T13:15:57;2.47;;;1.20;;
9364;SDS011;4722;49.340;9.800;2023-05-09T13:18:23;1.55;;;0.88;;
9364;SDS011;4722;49.340;9.800;2023-05-09T13:20:49;2.42;;;0.90;;
9364;SDS011;4722;49.340;9.800;2023-05-09T13:23:16;2.60;;;0.75;;
9364;SDS011;4722;49.340;9.800;2023-05-09T13:25:42;1.60;;;0.77;;
9364;SDS011;4722;49.340;9.800;2023-05-09T13:28:08;1.60;;;0.63;;
9364;SDS011;4722;49.340;9.800;2023-05-09T13:30:34;4.07;;;0.82;;
9364;SDS011;4722;49.340;9.800;2023-05-09T13:33:00;1.98;;;0.93;;
9364;SDS011;4722;49.340;9.800;2023-05-09T13:35:26;3.47;;;0.95;;
9364;SDS011;4722;49.340;9.800;2023-05-09T13:37:52;1.83;;;0.75;;
9364;SDS011;4722;49.340;9.800;2023-05-09T13:40:18;1.98;;;1.10;;
9364;SDS011;4722;49.340;9.800;2023-05-09T13:42:44;2.00;;;1.05;;
9364;SDS011;4722;49.340;9.800;2023-05-09T13:45:12;1.52;;;0.82;;
9364;SDS011;4722;49.340;9.800;2023-05-09T13:47:38;0.90;;;0.60;;
9364;SDS011;4722;49.340;9.800;2023-05-09T13:50:04;7.50;;;1.08;;
9364;SDS011;4722;49.340;9.800;2023-05-09T13:52:30;7.03;;;1.13;;
9364;SDS011;4722;49.340;9.800;2023-05-09T13:54:56;2.33;;;1.38;;
9364;SDS011;4722;49.340;9.800;2023-05-09T13:57:22;2.33;;;1.27;;
9364;SDS011;4722;49.340;9.800;2023-05-09T13:59:48;2.72;;;1.30;;
9364;SDS011;4722;49.340;9.800;2023-05-09T14:02:14;1.67;;;0.70;;
9364;SDS011;4722;49.340;9.800;2023-05-09T15:54:16;2.58;;;1.08;;
9364;SDS011;4722;49.340;9.800;2023-05-09T15:56:41;2.95;;;1.35;;
9364;SDS011;4722;49.340;9.800;2023-05-09T15:59:10;3.67;;;0.73;;
9364;SDS011;4722;49.340;9.800;2023-05-09T16:01:36;5.05;;;1.58;;
9364;SDS011;4722;49.340;9.800;2023-05-09T16:04:02;3.03;;;1.13;;
9364;SDS011;4722;49.340;9.800;2023-05-09T16:06:29;2.00;;;1.23;;
9364;SDS011;4722;49.340;9.800;2023-05-09T16:08:57;2.55;;;1.33;;
9364;SDS011;4722;49.340;9.800;2023-05-09T16:11:23;1.70;;;0.90;;
9364;SDS011;4722;49.340;9.800;2023-05-09T16:13:49;2.53;;;1.05;;
9364;SDS011;4722;49.340;9.800;2023-05-09T16:16:15;2.05;;;1.20;;
9364;SDS011;4722;49.340;9.800;2023-05-09T16:18:40;1.95;;;1.02;;
9364;SDS011;4722;49.340;9.800;2023-05-09T16:21:06;3.40;;;0.90;;
9364;SDS011;4722;49.340;9.800;2023-05-09T16:23:32;1.95;;;0.68;;
9364;SDS011;4722;49.340;9.800;2023-05-09T16:25:58;4.80;;;1.25;;
9364;SDS011;4722;49.340;9.800;2023-05-09T16:28:24;1.52;;;0.88;;
9364;SDS011;4722;49.340;9.800;2023-05-09T16:30:52;4.10;;;1.35;;
9364;SDS011;4722;49.340;9.800;2023-05-09T16:33:18;1.90;;;0.90;;
9364;SDS011;4722;49.340;9.800;2023-05-09T16:35:44;2.28;;;1.23;;
9364;SDS011;4722;49.340;9.800;2023-05-09T16:38:11;4.07;;;1.40;;
9364;SDS011;4722;49.340;9.800;2023-05-09T16:40:38;1.58;;;0.95;;
9364;SDS011;4722;49.340;9.800;2023-05-09T16:43:04;3.95;;;1.52;;
9364;SDS011;4722;49.340;9.800;2023-05-09T16:45:31;5.10;;;1.27;;
9364;SDS011;4722;49.340;9.800;2023-05-09T16:47:57;1.70;;;1.00;;
9364;SDS011;4722;49.340;9.800;2023-05-09T16:50:23;3.22;;;1.17;;
9364;SDS011;4722;49.340;9.800;2023-05-09T16:52:49;1.60;;;1.00;;
9364;SDS011;4722;49.340;9.800;2023-05-09T16:55:15;2.22;;;0.98;;
9364;SDS011;4722;49.340;9.800;2023-05-09T16:57:41;3.35;;;1.65;;
9364;SDS011;4722;49.340;9.800;2023-05-09T17:00:07;2.55;;;1.20;;
9364;SDS011;4722;49.340;9.800;2023-05-09T17:02:33;2.45;;;1.13;;
9364;SDS011;4722;49.340;9.800;2023-05-09T17:05:00;2.45;;;1.02;;
9364;SDS011;4722;49.340;9.800;2023-05-09T17:07:26;2.75;;;1.38;;
9364;SDS011;4722;49.340;9.800;2023-05-09T17:09:52;2.13;;;1.17;;
9364;SDS011;4722;49.340;9.800;2023-05-09T17:12:18;2.33;;;1.25;;
9364;SDS011;4722;49.340;9.800;2023-05-09T17:14:44;2.08;;;1.20;;
9364;SDS011;4722;49.340;9.800;2023-05-09T17:17:10;1.85;;;0.68;;
9364;SDS011;4722;49.340;9.800;2023-05-09T17:19:37;1.58;;;0.70;;
9364;SDS011;4722;49.340;9.800;2023-05-09T17:22:03;1.42;;;0.70;;